sensor_id;sensor_type;location;lat;lon;timestamp;temperature;humidity
23568;DHT22;11962;50.838;4.430;2023-12-14T00:01:12;11.70;99.90
23568;DHT22;11962;50.838;4.430;2023-12-14T00:03:41;11.70;99.90
23568;DHT22;11962;50.838;4.430;2023-12-14T00:06:10;11.70;99.90
23568;DHT22;11962;50.838;4.430;2023-12-14T00:08:35;11.60;99.90
23568;DHT22;11962;50.838;4.430;2023-12-14T00:11:06;11.70;99.90
23568;DHT22;11962;50.838;4.430;2023-12-14T00:13:32;11.60;99.90
23568;DHT22;11962;50.838;4.430;2023-12-14T00:15:58;11.60;99.90
23568;DHT22;11962;50.838;4.430;2023-12-14T00:18:24;11.60;99.90
23568;DHT22;11962;50.838;4.430;2023-12-14T00:20:51;11.50;99.90
23568;DHT22;11962;50.838;4.430;2023-12-14T00:23:16;11.50;99.90
23568;DHT22;11962;50.838;4.430;2023-12-14T00:25:42;11.60;99.90
23568;DHT22;11962;50.838;4.430;2023-12-14T00:28:08;11.60;99.90
23568;DHT22;11962;50.838;4.430;2023-12-14T00:30:33;11.60;99.90
23568;DHT22;11962;50.838;4.430;2023-12-14T00:32:59;11.60;99.90
23568;DHT22;11962;50.838;4.430;2023-12-14T00:35:25;11.60;99.90
23568;DHT22;11962;50.838;4.430;2023-12-14T00:37:51;11.70;99.90
23568;DHT22;11962;50.838;4.430;2023-12-14T00:40:17;11.70;99.90
23568;DHT22;11962;50.838;4.430;2023-12-14T00:42:42;11.70;99.90
23568;DHT22;11962;50.838;4.430;2023-12-14T00:45:08;11.70;99.90
23568;DHT22;11962;50.838;4.430;2023-12-14T00:47:34;11.70;99.90
23568;DHT22;11962;50.838;4.430;2023-12-14T00:50:00;11.70;99.90
23568;DHT22;11962;50.838;4.430;2023-12-14T00:52:26;11.70;99.90
23568;DHT22;11962;50.838;4.430;2023-12-14T00:54:52;11.70;99.90
23568;DHT22;11962;50.838;4.430;2023-12-14T00:57:17;11.70;99.90
23568;DHT22;11962;50.838;4.430;2023-12-14T00:59:43;11.70;99.90
23568;DHT22;11962;50.838;4.430;2023-12-14T01:02:09;11.80;99.90
23568;DHT22;11962;50.838;4.430;2023-12-14T01:04:34;11.80;99.90
23568;DHT22;11962;50.838;4.430;2023-12-14T01:07:00;11.70;99.90
23568;DHT22;11962;50.838;4.430;2023-12-14T01:09:26;11.70;99.90
23568;DHT22;11962;50.838;4.430;2023-12-14T01:11:52;11.60;99.90
23568;DHT22;11962;50.838;4.430;2023-12-14T01:14:17;11.60;99.90
23568;DHT22;11962;50.838;4.430;2023-12-14T01:16:43;11.70;99.90
23568;DHT22;11962;50.838;4.430;2023-12-14T01:19:09;11.70;99.90
23568;DHT22;11962;50.838;4.430;2023-12-14T01:21:34;11.70;99.90
23568;DHT22;11962;50.838;4.430;2023-12-14T01:24:00;11.60;99.90
23568;DHT22;11962;50.838;4.430;2023-12-14T01:26:27;11.60;99.90
23568;DHT22;11962;50.838;4.430;2023-12-14T01:28:53;11.70;99.90
23568;DHT22;11962;50.838;4.430;2023-12-14T01:31:18;11.60;99.90
23568;DHT22;11962;50.838;4.430;2023-12-14T01:33:44;11.60;99.90
23568;DHT22;11962;50.838;4.430;2023-12-14T01:36:20;11.60;99.90
23568;DHT22;11962;50.838;4.430;2023-12-14T01:38:46;11.60;99.90
23568;DHT22;11962;50.838;4.430;2023-12-14T01:41:12;11.60;99.90
23568;DHT22;11962;50.838;4.430;2023-12-14T01:43:38;11.60;99.90
23568;DHT22;11962;50.838;4.430;2023-12-14T01:46:03;11.60;99.90
23568;DHT22;11962;50.838;4.430;2023-12-14T01:48:29;11.60;99.90
23568;DHT22;11962;50.838;4.430;2023-12-14T01:50:55;11.60;99.90
23568;DHT22;11962;50.838;4.430;2023-12-14T01:53:21;11.60;99.90
23568;DHT22;11962;50.838;4.430;2023-12-14T01:55:47;11.60;99.90
23568;DHT22;11962;50.838;4.430;2023-12-14T01:58:13;11.60;99.90
23568;DHT22;11962;50.838;4.430;2023-12-14T02:03:29;11.60;99.90
23568;DHT22;11962;50.838;4.430;2023-12-14T02:05:55;11.50;99.90
23568;DHT22;11962;50.838;4.430;2023-12-14T02:08:24;11.50;99.90
23568;DHT22;11962;50.838;4.430;2023-12-14T02:10:49;11.50;99.90
23568;DHT22;11962;50.838;4.430;2023-12-14T02:13:15;11.40;99.90
23568;DHT22;11962;50.838;4.430;2023-12-14T02:15:42;11.40;99.90
23568;DHT22;11962;50.838;4.430;2023-12-14T02:18:08;11.40;99.90
23568;DHT22;11962;50.838;4.430;2023-12-14T02:20:33;11.40;99.90
23568;DHT22;11962;50.838;4.430;2023-12-14T02:22:59;11.30;99.90
23568;DHT22;11962;50.838;4.430;2023-12-14T02:25:25;11.20;99.90
23568;DHT22;11962;50.838;4.430;2023-12-14T02:27:51;11.20;99.90
23568;DHT22;11962;50.838;4.430;2023-12-14T02:30:18;11.20;99.90
23568;DHT22;11962;50.838;4.430;2023-12-14T02:32:44;11.20;99.90
23568;DHT22;11962;50.838;4.430;2023-12-14T02:35:10;11.20;99.90
23568;DHT22;11962;50.838;4.430;2023-12-14T02:37:36;11.10;99.90
23568;DHT22;11962;50.838;4.430;2023-12-14T02:40:09;11.10;99.90
23568;DHT22;11962;50.838;4.430;2023-12-14T02:42:35;11.00;99.90
23568;DHT22;11962;50.838;4.430;2023-12-14T02:45:01;11.00;99.90
23568;DHT22;11962;50.838;4.430;2023-12-14T02:47:28;11.00;99.90
23568;DHT22;11962;50.838;4.430;2023-12-14T02:49:54;11.00;99.90
23568;DHT22;11962;50.838;4.430;2023-12-14T02:52:20;11.00;99.90
23568;DHT22;11962;50.838;4.430;2023-12-14T02:54:46;10.90;99.90
23568;DHT22;11962;50.838;4.430;2023-12-14T02:57:12;10.90;99.90
23568;DHT22;11962;50.838;4.430;2023-12-14T02:59:37;10.90;99.90
23568;DHT22;11962;50.838;4.430;2023-12-14T03:02:04;10.90;99.90
23568;DHT22;11962;50.838;4.430;2023-12-14T03:04:30;10.90;99.90
23568;DHT22;11962;50.838;4.430;2023-12-14T03:06:55;10.90;99.90
23568;DHT22;11962;50.838;4.430;2023-12-14T03:09:22;10.90;99.90
23568;DHT22;11962;50.838;4.430;2023-12-14T03:11:48;10.90;99.90
23568;DHT22;11962;50.838;4.430;2023-12-14T03:14:14;10.90;99.90
23568;DHT22;11962;50.838;4.430;2023-12-14T03:16:40;10.80;99.90
23568;DHT22;11962;50.838;4.430;2023-12-14T03:19:05;10.80;99.90
23568;DHT22;11962;50.838;4.430;2023-12-14T03:21:31;10.80;99.90
23568;DHT22;11962;50.838;4.430;2023-12-14T03:23:57;10.80;99.90
23568;DHT22;11962;50.838;4.430;2023-12-14T03:26:23;10.80;99.90
23568;DHT22;11962;50.838;4.430;2023-12-14T03:28:48;10.70;99.90
23568;DHT22;11962;50.838;4.430;2023-12-14T03:31:14;10.70;99.90
23568;DHT22;11962;50.838;4.430;2023-12-14T03:33:41;10.70;99.90
23568;DHT22;11962;50.838;4.430;2023-12-14T03:36:07;10.60;99.90
23568;DHT22;11962;50.838;4.430;2023-12-14T03:38:33;10.70;99.90
23568;DHT22;11962;50.838;4.430;2023-12-14T03:40:59;10.70;99.90
23568;DHT22;11962;50.838;4.430;2023-12-14T03:43:25;10.70;99.90
23568;DHT22;11962;50.838;4.430;2023-12-14T03:45:51;10.60;99.90
23568;DHT22;11962;50.838;4.430;2023-12-14T03:48:16;10.60;99.90
23568;DHT22;11962;50.838;4.430;2023-12-14T03:50:42;10.50;99.90
23568;DHT22;11962;50.838;4.430;2023-12-14T03:53:08;10.40;99.90
23568;DHT22;11962;50.838;4.430;2023-12-14T03:55:34;10.40;99.90
23568;DHT22;11962;50.838;4.430;2023-12-14T03:57:59;10.40;99.90
23568;DHT22;11962;50.838;4.430;2023-12-14T04:00:25;10.40;99.90
23568;DHT22;11962;50.838;4.430;2023-12-14T04:02:51;10.30;99.90
23568;DHT22;11962;50.838;4.430;2023-12-14T04:05:17;10.30;99.90
23568;DHT22;11962;50.838;4.430;2023-12-14T04:07:43;10.30;99.90
23568;DHT22;11962;50.838;4.430;2023-12-14T04:10:10;10.20;99.90
23568;DHT22;11962;50.838;4.430;2023-12-14T04:12:39;10.20;99.90
23568;DHT22;11962;50.838;4.430;2023-12-14T04:15:06;10.10;99.90
23568;DHT22;11962;50.838;4.430;2023-12-14T04:17:32;10.10;99.90
23568;DHT22;11962;50.838;4.430;2023-12-14T04:19:58;10.10;99.90
23568;DHT22;11962;50.838;4.430;2023-12-14T04:22:24;10.10;99.90
23568;DHT22;11962;50.838;4.430;2023-12-14T04:24:50;10.00;99.90
23568;DHT22;11962;50.838;4.430;2023-12-14T04:27:17;9.90;99.90
23568;DHT22;11962;50.838;4.430;2023-12-14T04:29:42;9.80;99.90
23568;DHT22;11962;50.838;4.430;2023-12-14T04:32:08;9.90;99.90
23568;DHT22;11962;50.838;4.430;2023-12-14T04:34:34;9.90;99.90
23568;DHT22;11962;50.838;4.430;2023-12-14T04:37:00;9.90;99.90
23568;DHT22;11962;50.838;4.430;2023-12-14T04:39:26;9.80;99.90
23568;DHT22;11962;50.838;4.430;2023-12-14T04:41:52;9.80;99.90
23568;DHT22;11962;50.838;4.430;2023-12-14T04:44:19;9.90;99.90
23568;DHT22;11962;50.838;4.430;2023-12-14T04:46:45;9.90;99.90
23568;DHT22;11962;50.838;4.430;2023-12-14T04:49:11;9.90;99.90
23568;DHT22;11962;50.838;4.430;2023-12-14T04:51:37;10.00;99.90
23568;DHT22;11962;50.838;4.430;2023-12-14T04:54:03;10.00;99.90
23568;DHT22;11962;50.838;4.430;2023-12-14T04:56:29;10.00;99.90
23568;DHT22;11962;50.838;4.430;2023-12-14T04:58:55;9.90;99.90
23568;DHT22;11962;50.838;4.430;2023-12-14T05:01:21;9.80;99.90
23568;DHT22;11962;50.838;4.430;2023-12-14T05:03:46;9.80;99.90
23568;DHT22;11962;50.838;4.430;2023-12-14T05:06:12;9.80;99.90
23568;DHT22;11962;50.838;4.430;2023-12-14T05:08:38;9.80;99.90
23568;DHT22;11962;50.838;4.430;2023-12-14T05:11:04;9.90;99.90
23568;DHT22;11962;50.838;4.430;2023-12-14T05:13:30;9.80;99.90
23568;DHT22;11962;50.838;4.430;2023-12-14T05:15:56;9.80;99.90
23568;DHT22;11962;50.838;4.430;2023-12-14T05:18:23;9.80;99.90
23568;DHT22;11962;50.838;4.430;2023-12-14T05:20:50;9.80;99.90
23568;DHT22;11962;50.838;4.430;2023-12-14T05:23:16;9.80;99.90
23568;DHT22;11962;50.838;4.430;2023-12-14T05:25:41;9.80;99.90
23568;DHT22;11962;50.838;4.430;2023-12-14T05:28:07;9.70;99.90
23568;DHT22;11962;50.838;4.430;2023-12-14T05:30:33;9.70;99.90
23568;DHT22;11962;50.838;4.430;2023-12-14T05:32:59;9.60;99.90
23568;DHT22;11962;50.838;4.430;2023-12-14T05:35:25;9.60;99.90
23568;DHT22;11962;50.838;4.430;2023-12-14T05:37:51;9.50;99.90
23568;DHT22;11962;50.838;4.430;2023-12-14T05:40:17;9.50;99.90
23568;DHT22;11962;50.838;4.430;2023-12-14T05:42:43;9.50;99.90
23568;DHT22;11962;50.838;4.430;2023-12-14T05:45:09;9.50;99.90
23568;DHT22;11962;50.838;4.430;2023-12-14T05:47:34;9.40;99.90
23568;DHT22;11962;50.838;4.430;2023-12-14T05:50:01;9.40;99.90
23568;DHT22;11962;50.838;4.430;2023-12-14T05:52:27;9.50;99.90
23568;DHT22;11962;50.838;4.430;2023-12-14T05:54:53;9.50;99.90
23568;DHT22;11962;50.838;4.430;2023-12-14T05:57:19;9.50;99.90
23568;DHT22;11962;50.838;4.430;2023-12-14T05:59:44;9.60;99.90
23568;DHT22;11962;50.838;4.430;2023-12-14T06:02:10;9.60;99.90
23568;DHT22;11962;50.838;4.430;2023-12-14T06:04:36;9.60;99.90
23568;DHT22;11962;50.838;4.430;2023-12-14T06:07:02;9.50;99.90
23568;DHT22;11962;50.838;4.430;2023-12-14T06:09:28;9.60;99.90
23568;DHT22;11962;50.838;4.430;2023-12-14T06:12:04;9.50;99.90
23568;DHT22;11962;50.838;4.430;2023-12-14T06:14:30;9.50;99.90
23568;DHT22;11962;50.838;4.430;2023-12-14T06:16:57;9.50;99.90
23568;DHT22;11962;50.838;4.430;2023-12-14T06:19:23;9.50;99.90
23568;DHT22;11962;50.838;4.430;2023-12-14T06:21:49;9.60;99.90
23568;DHT22;11962;50.838;4.430;2023-12-14T06:24:14;9.60;99.90
23568;DHT22;11962;50.838;4.430;2023-12-14T06:26:41;9.60;99.90
23568;DHT22;11962;50.838;4.430;2023-12-14T06:29:09;9.60;99.90
23568;DHT22;11962;50.838;4.430;2023-12-14T06:31:35;9.60;99.90
23568;DHT22;11962;50.838;4.430;2023-12-14T06:34:01;9.60;99.90
23568;DHT22;11962;50.838;4.430;2023-12-14T06:36:32;9.70;99.90
23568;DHT22;11962;50.838;4.430;2023-12-14T06:38:59;9.60;99.90
23568;DHT22;11962;50.838;4.430;2023-12-14T06:41:26;9.60;99.90
23568;DHT22;11962;50.838;4.430;2023-12-14T06:43:53;9.60;99.90
23568;DHT22;11962;50.838;4.430;2023-12-14T06:46:19;9.60;99.90
23568;DHT22;11962;50.838;4.430;2023-12-14T06:48:45;9.60;99.90
23568;DHT22;11962;50.838;4.430;2023-12-14T06:51:11;9.60;99.90
23568;DHT22;11962;50.838;4.430;2023-12-14T06:53:40;9.50;99.90
23568;DHT22;11962;50.838;4.430;2023-12-14T06:56:06;9.50;99.90
23568;DHT22;11962;50.838;4.430;2023-12-14T06:58:35;9.60;99.90
23568;DHT22;11962;50.838;4.430;2023-12-14T07:01:01;9.60;99.90
23568;DHT22;11962;50.838;4.430;2023-12-14T07:03:26;9.60;99.90
23568;DHT22;11962;50.838;4.430;2023-12-14T07:05:52;9.60;99.90
23568;DHT22;11962;50.838;4.430;2023-12-14T07:08:18;9.60;99.90
23568;DHT22;11962;50.838;4.430;2023-12-14T07:10:44;9.60;99.90
23568;DHT22;11962;50.838;4.430;2023-12-14T07:13:10;9.60;99.90
23568;DHT22;11962;50.838;4.430;2023-12-14T07:15:35;9.50;99.90
23568;DHT22;11962;50.838;4.430;2023-12-14T07:18:01;9.50;99.90
23568;DHT22;11962;50.838;4.430;2023-12-14T07:20:27;9.50;99.90
23568;DHT22;11962;50.838;4.430;2023-12-14T07:22:53;9.40;99.90
23568;DHT22;11962;50.838;4.430;2023-12-14T07:25:19;9.40;99.90
23568;DHT22;11962;50.838;4.430;2023-12-14T07:27:45;9.40;99.90
23568;DHT22;11962;50.838;4.430;2023-12-14T07:30:12;9.40;99.90
23568;DHT22;11962;50.838;4.430;2023-12-14T07:32:38;9.40;99.90
23568;DHT22;11962;50.838;4.430;2023-12-14T07:35:04;9.40;99.90
23568;DHT22;11962;50.838;4.430;2023-12-14T07:37:30;9.30;99.90
23568;DHT22;11962;50.838;4.430;2023-12-14T07:39:56;9.20;99.90
23568;DHT22;11962;50.838;4.430;2023-12-14T07:42:23;9.10;99.90
23568;DHT22;11962;50.838;4.430;2023-12-14T07:44:49;9.00;99.90
23568;DHT22;11962;50.838;4.430;2023-12-14T07:47:15;8.90;99.90
23568;DHT22;11962;50.838;4.430;2023-12-14T07:49:41;8.90;99.90
23568;DHT22;11962;50.838;4.430;2023-12-14T07:52:06;8.90;99.90
23568;DHT22;11962;50.838;4.430;2023-12-14T07:54:32;8.80;99.90
23568;DHT22;11962;50.838;4.430;2023-12-14T07:56:58;8.80;99.90
23568;DHT22;11962;50.838;4.430;2023-12-14T07:59:24;8.90;99.90
23568;DHT22;11962;50.838;4.430;2023-12-14T08:01:50;9.00;99.90
23568;DHT22;11962;50.838;4.430;2023-12-14T08:04:15;9.00;99.90
23568;DHT22;11962;50.838;4.430;2023-12-14T08:06:41;9.10;99.90
23568;DHT22;11962;50.838;4.430;2023-12-14T08:09:07;9.30;99.90
23568;DHT22;11962;50.838;4.430;2023-12-14T08:11:33;9.30;99.90
23568;DHT22;11962;50.838;4.430;2023-12-14T08:13:59;9.30;99.90
23568;DHT22;11962;50.838;4.430;2023-12-14T08:16:25;9.30;99.90
23568;DHT22;11962;50.838;4.430;2023-12-14T08:18:51;9.40;99.90
23568;DHT22;11962;50.838;4.430;2023-12-14T08:21:18;9.40;99.90
23568;DHT22;11962;50.838;4.430;2023-12-14T08:23:44;9.50;99.90
23568;DHT22;11962;50.838;4.430;2023-12-14T08:26:10;9.50;99.90
23568;DHT22;11962;50.838;4.430;2023-12-14T08:28:38;9.60;99.90
23568;DHT22;11962;50.838;4.430;2023-12-14T08:31:04;9.60;99.90
23568;DHT22;11962;50.838;4.430;2023-12-14T08:33:30;9.60;99.90
23568;DHT22;11962;50.838;4.430;2023-12-14T08:35:56;9.80;99.90
23568;DHT22;11962;50.838;4.430;2023-12-14T08:38:22;9.90;99.90
23568;DHT22;11962;50.838;4.430;2023-12-14T08:40:48;10.00;99.90
23568;DHT22;11962;50.838;4.430;2023-12-14T08:43:13;10.10;99.90
23568;DHT22;11962;50.838;4.430;2023-12-14T08:45:39;10.10;99.90
23568;DHT22;11962;50.838;4.430;2023-12-14T08:48:05;10.00;99.90
23568;DHT22;11962;50.838;4.430;2023-12-14T08:50:32;10.00;99.90
23568;DHT22;11962;50.838;4.430;2023-12-14T08:52:57;10.00;99.90
23568;DHT22;11962;50.838;4.430;2023-12-14T08:55:26;9.90;99.90
23568;DHT22;11962;50.838;4.430;2023-12-14T08:57:52;9.90;99.90
23568;DHT22;11962;50.838;4.430;2023-12-14T09:00:18;9.90;99.90
23568;DHT22;11962;50.838;4.430;2023-12-14T09:02:45;9.90;99.90
23568;DHT22;11962;50.838;4.430;2023-12-14T09:05:14;10.00;99.90
23568;DHT22;11962;50.838;4.430;2023-12-14T09:07:42;10.20;99.90
23568;DHT22;11962;50.838;4.430;2023-12-14T09:10:08;10.40;99.90
23568;DHT22;11962;50.838;4.430;2023-12-14T09:12:34;10.50;99.90
23568;DHT22;11962;50.838;4.430;2023-12-14T09:15:01;10.70;99.90
23568;DHT22;11962;50.838;4.430;2023-12-14T09:17:26;10.90;99.90
23568;DHT22;11962;50.838;4.430;2023-12-14T09:20:01;11.10;99.90
23568;DHT22;11962;50.838;4.430;2023-12-14T09:22:30;11.30;99.90
23568;DHT22;11962;50.838;4.430;2023-12-14T09:24:56;11.30;99.90
23568;DHT22;11962;50.838;4.430;2023-12-14T09:27:21;11.40;99.90
23568;DHT22;11962;50.838;4.430;2023-12-14T09:29:47;11.40;99.90
23568;DHT22;11962;50.838;4.430;2023-12-14T09:32:13;11.60;99.90
23568;DHT22;11962;50.838;4.430;2023-12-14T09:34:39;11.60;99.90
23568;DHT22;11962;50.838;4.430;2023-12-14T09:37:04;11.60;99.90
23568;DHT22;11962;50.838;4.430;2023-12-14T09:39:30;11.60;99.90
23568;DHT22;11962;50.838;4.430;2023-12-14T09:42:06;11.70;99.90
23568;DHT22;11962;50.838;4.430;2023-12-14T09:44:35;11.60;99.90
23568;DHT22;11962;50.838;4.430;2023-12-14T09:47:01;11.50;99.90
23568;DHT22;11962;50.838;4.430;2023-12-14T09:49:29;11.40;99.90
23568;DHT22;11962;50.838;4.430;2023-12-14T09:51:59;11.40;99.90
23568;DHT22;11962;50.838;4.430;2023-12-14T09:54:28;11.40;99.90
23568;DHT22;11962;50.838;4.430;2023-12-14T09:56:54;11.40;99.90
23568;DHT22;11962;50.838;4.430;2023-12-14T09:59:20;11.30;99.90
23568;DHT22;11962;50.838;4.430;2023-12-14T10:01:47;11.30;99.90
23568;DHT22;11962;50.838;4.430;2023-12-14T10:04:14;11.20;99.90
23568;DHT22;11962;50.838;4.430;2023-12-14T10:06:41;11.20;99.90
23568;DHT22;11962;50.838;4.430;2023-12-14T10:09:08;11.20;99.90
23568;DHT22;11962;50.838;4.430;2023-12-14T10:11:41;11.20;99.90
23568;DHT22;11962;50.838;4.430;2023-12-14T10:14:24;11.20;99.90
23568;DHT22;11962;50.838;4.430;2023-12-14T10:16:53;11.10;99.90
23568;DHT22;11962;50.838;4.430;2023-12-14T10:19:19;11.10;99.90
23568;DHT22;11962;50.838;4.430;2023-12-14T10:21:48;11.00;99.90
23568;DHT22;11962;50.838;4.430;2023-12-14T10:24:15;11.00;99.90
23568;DHT22;11962;50.838;4.430;2023-12-14T10:26:41;11.10;99.90
23568;DHT22;11962;50.838;4.430;2023-12-14T10:29:07;11.10;99.90
23568;DHT22;11962;50.838;4.430;2023-12-14T10:31:33;11.20;99.90
23568;DHT22;11962;50.838;4.430;2023-12-14T10:34:03;11.30;99.90
23568;DHT22;11962;50.838;4.430;2023-12-14T10:36:30;11.40;99.90
23568;DHT22;11962;50.838;4.430;2023-12-14T10:38:57;11.40;99.90
23568;DHT22;11962;50.838;4.430;2023-12-14T10:41:27;11.40;99.90
23568;DHT22;11962;50.838;4.430;2023-12-14T10:43:56;11.40;99.90
23568;DHT22;11962;50.838;4.430;2023-12-14T10:46:23;11.50;99.90
23568;DHT22;11962;50.838;4.430;2023-12-14T10:48:52;11.40;99.90
23568;DHT22;11962;50.838;4.430;2023-12-14T10:51:21;11.40;99.90
23568;DHT22;11962;50.838;4.430;2023-12-14T10:53:47;11.30;99.90
23568;DHT22;11962;50.838;4.430;2023-12-14T10:56:16;11.40;99.90
23568;DHT22;11962;50.838;4.430;2023-12-14T10:59:01;11.50;99.90
23568;DHT22;11962;50.838;4.430;2023-12-14T11:01:28;11.60;99.90
23568;DHT22;11962;50.838;4.430;2023-12-14T11:03:59;11.70;99.90
23568;DHT22;11962;50.838;4.430;2023-12-14T11:08:53;12.00;99.90
23568;DHT22;11962;50.838;4.430;2023-12-14T11:11:20;12.10;99.90
23568;DHT22;11962;50.838;4.430;2023-12-14T11:13:53;12.20;99.90
23568;DHT22;11962;50.838;4.430;2023-12-14T11:16:28;12.30;99.90
23568;DHT22;11962;50.838;4.430;2023-12-14T11:24:24;12.40;99.90
23568;DHT22;11962;50.838;4.430;2023-12-14T11:26:51;12.40;99.90
23568;DHT22;11962;50.838;4.430;2023-12-14T11:29:18;12.40;99.90
23568;DHT22;11962;50.838;4.430;2023-12-14T11:31:45;12.40;99.90
23568;DHT22;11962;50.838;4.430;2023-12-14T11:34:11;12.40;99.90
23568;DHT22;11962;50.838;4.430;2023-12-14T11:36:37;12.40;99.90
23568;DHT22;11962;50.838;4.430;2023-12-14T11:39:09;12.40;99.90
23568;DHT22;11962;50.838;4.430;2023-12-14T11:41:35;12.40;99.90
23568;DHT22;11962;50.838;4.430;2023-12-14T11:44:02;12.40;99.90
23568;DHT22;11962;50.838;4.430;2023-12-14T11:46:29;12.30;99.90
23568;DHT22;11962;50.838;4.430;2023-12-14T11:48:56;12.20;99.90
23568;DHT22;11962;50.838;4.430;2023-12-14T11:51:22;12.10;99.90
23568;DHT22;11962;50.838;4.430;2023-12-14T11:53:49;12.00;99.90
23568;DHT22;11962;50.838;4.430;2023-12-14T11:56:17;11.80;99.90
23568;DHT22;11962;50.838;4.430;2023-12-14T11:58:44;11.60;99.90
23568;DHT22;11962;50.838;4.430;2023-12-14T12:01:14;11.60;99.90
23568;DHT22;11962;50.838;4.430;2023-12-14T12:03:40;11.50;99.90
23568;DHT22;11962;50.838;4.430;2023-12-14T12:06:06;11.50;99.90
23568;DHT22;11962;50.838;4.430;2023-12-14T12:08:40;11.50;99.90
23568;DHT22;11962;50.838;4.430;2023-12-14T12:11:07;11.50;99.90
23568;DHT22;11962;50.838;4.430;2023-12-14T12:13:34;11.50;99.90
23568;DHT22;11962;50.838;4.430;2023-12-14T12:16:00;11.50;99.90
23568;DHT22;11962;50.838;4.430;2023-12-14T12:18:26;11.60;99.90
23568;DHT22;11962;50.838;4.430;2023-12-14T12:20:52;11.60;99.90
23568;DHT22;11962;50.838;4.430;2023-12-14T12:23:18;11.70;99.90
23568;DHT22;11962;50.838;4.430;2023-12-14T12:25:44;11.60;99.90
23568;DHT22;11962;50.838;4.430;2023-12-14T12:28:10;11.60;99.90
23568;DHT22;11962;50.838;4.430;2023-12-14T12:30:36;11.60;99.90
23568;DHT22;11962;50.838;4.430;2023-12-14T12:33:01;11.60;99.90
23568;DHT22;11962;50.838;4.430;2023-12-14T12:35:27;11.60;99.90
23568;DHT22;11962;50.838;4.430;2023-12-14T12:37:55;11.70;99.90
23568;DHT22;11962;50.838;4.430;2023-12-14T12:40:22;11.70;99.90
23568;DHT22;11962;50.838;4.430;2023-12-14T12:42:49;11.70;99.90
23568;DHT22;11962;50.838;4.430;2023-12-14T12:45:16;11.60;99.90
23568;DHT22;11962;50.838;4.430;2023-12-14T12:47:44;11.70;99.90
23568;DHT22;11962;50.838;4.430;2023-12-14T12:50:11;11.60;99.90
23568;DHT22;11962;50.838;4.430;2023-12-14T12:52:36;11.50;99.90
23568;DHT22;11962;50.838;4.430;2023-12-14T12:55:04;11.50;99.90
23568;DHT22;11962;50.838;4.430;2023-12-14T12:57:30;11.50;99.90
23568;DHT22;11962;50.838;4.430;2023-12-14T12:59:56;11.60;99.90
23568;DHT22;11962;50.838;4.430;2023-12-14T13:02:22;11.60;99.90
23568;DHT22;11962;50.838;4.430;2023-12-14T13:04:48;11.70;99.90
23568;DHT22;11962;50.838;4.430;2023-12-14T13:07:13;11.70;99.90
23568;DHT22;11962;50.838;4.430;2023-12-14T13:09:39;11.60;99.90
23568;DHT22;11962;50.838;4.430;2023-12-14T13:12:05;11.70;99.90
23568;DHT22;11962;50.838;4.430;2023-12-14T13:14:31;11.60;99.90
23568;DHT22;11962;50.838;4.430;2023-12-14T13:16:57;11.60;99.90
23568;DHT22;11962;50.838;4.430;2023-12-14T13:19:24;11.60;99.90
23568;DHT22;11962;50.838;4.430;2023-12-14T13:21:51;11.50;99.90
23568;DHT22;11962;50.838;4.430;2023-12-14T13:24:17;11.50;99.90
23568;DHT22;11962;50.838;4.430;2023-12-14T13:26:43;11.50;99.90
23568;DHT22;11962;50.838;4.430;2023-12-14T13:29:09;11.40;99.90
23568;DHT22;11962;50.838;4.430;2023-12-14T13:31:36;11.40;99.90
23568;DHT22;11962;50.838;4.430;2023-12-14T13:34:01;11.40;99.90
23568;DHT22;11962;50.838;4.430;2023-12-14T13:36:28;11.40;99.90
23568;DHT22;11962;50.838;4.430;2023-12-14T13:38:55;11.40;99.90
23568;DHT22;11962;50.838;4.430;2023-12-14T13:41:22;11.40;99.90
23568;DHT22;11962;50.838;4.430;2023-12-14T13:43:48;11.40;99.90
23568;DHT22;11962;50.838;4.430;2023-12-14T13:46:14;11.40;99.90
23568;DHT22;11962;50.838;4.430;2023-12-14T13:48:40;11.40;99.90
23568;DHT22;11962;50.838;4.430;2023-12-14T13:51:06;11.30;99.90
23568;DHT22;11962;50.838;4.430;2023-12-14T13:53:33;11.20;99.90
23568;DHT22;11962;50.838;4.430;2023-12-14T13:55:59;11.20;99.90
23568;DHT22;11962;50.838;4.430;2023-12-14T13:58:25;11.10;99.90
23568;DHT22;11962;50.838;4.430;2023-12-14T14:00:50;11.20;99.90
23568;DHT22;11962;50.838;4.430;2023-12-14T14:03:16;11.30;99.90
23568;DHT22;11962;50.838;4.430;2023-12-14T14:05:42;11.30;99.90
23568;DHT22;11962;50.838;4.430;2023-12-14T14:08:09;11.40;99.90
23568;DHT22;11962;50.838;4.430;2023-12-14T14:10:35;11.40;99.90
23568;DHT22;11962;50.838;4.430;2023-12-14T14:13:01;11.40;99.90
23568;DHT22;11962;50.838;4.430;2023-12-14T14:15:27;11.50;99.90
23568;DHT22;11962;50.838;4.430;2023-12-14T14:17:53;11.50;99.90
23568;DHT22;11962;50.838;4.430;2023-12-14T14:20:20;11.50;99.90
23568;DHT22;11962;50.838;4.430;2023-12-14T14:22:46;11.50;99.90
23568;DHT22;11962;50.838;4.430;2023-12-14T14:25:11;11.50;99.90
23568;DHT22;11962;50.838;4.430;2023-12-14T14:27:37;11.50;99.90
23568;DHT22;11962;50.838;4.430;2023-12-14T14:30:04;11.50;99.90
23568;DHT22;11962;50.838;4.430;2023-12-14T14:32:30;11.60;99.90
23568;DHT22;11962;50.838;4.430;2023-12-14T14:34:57;11.50;99.90
23568;DHT22;11962;50.838;4.430;2023-12-14T14:37:24;11.50;99.90
23568;DHT22;11962;50.838;4.430;2023-12-14T14:39:51;11.60;99.90
23568;DHT22;11962;50.838;4.430;2023-12-14T14:42:16;11.60;99.90
23568;DHT22;11962;50.838;4.430;2023-12-14T14:44:42;11.60;99.90
23568;DHT22;11962;50.838;4.430;2023-12-14T14:47:08;11.70;99.90
23568;DHT22;11962;50.838;4.430;2023-12-14T14:49:34;11.50;99.90
23568;DHT22;11962;50.838;4.430;2023-12-14T14:52:00;11.50;99.90
23568;DHT22;11962;50.838;4.430;2023-12-14T14:54:26;11.50;99.90
23568;DHT22;11962;50.838;4.430;2023-12-14T14:56:51;11.40;99.90
23568;DHT22;11962;50.838;4.430;2023-12-14T14:59:17;11.40;99.90
23568;DHT22;11962;50.838;4.430;2023-12-14T15:01:43;11.40;99.90
23568;DHT22;11962;50.838;4.430;2023-12-14T15:04:10;11.40;99.90
23568;DHT22;11962;50.838;4.430;2023-12-14T15:06:36;11.40;99.90
23568;DHT22;11962;50.838;4.430;2023-12-14T15:09:04;11.40;99.90
23568;DHT22;11962;50.838;4.430;2023-12-14T15:11:30;11.40;99.90
23568;DHT22;11962;50.838;4.430;2023-12-14T15:13:56;11.30;99.90
23568;DHT22;11962;50.838;4.430;2023-12-14T15:16:22;11.30;99.90
23568;DHT22;11962;50.838;4.430;2023-12-14T15:18:51;11.20;99.90
23568;DHT22;11962;50.838;4.430;2023-12-14T15:21:16;11.20;99.90
23568;DHT22;11962;50.838;4.430;2023-12-14T15:23:43;11.10;99.90
23568;DHT22;11962;50.838;4.430;2023-12-14T15:26:09;11.10;99.90
23568;DHT22;11962;50.838;4.430;2023-12-14T15:28:37;11.00;99.90
23568;DHT22;11962;50.838;4.430;2023-12-14T15:31:03;11.00;99.90
23568;DHT22;11962;50.838;4.430;2023-12-14T15:33:29;11.00;99.90
23568;DHT22;11962;50.838;4.430;2023-12-14T15:35:54;11.00;99.90
23568;DHT22;11962;50.838;4.430;2023-12-14T15:38:20;11.00;99.90
23568;DHT22;11962;50.838;4.430;2023-12-14T15:40:46;11.00;99.90